Latest Weather Observations for Cleve Airport

IDS60801

Issued at 9:31 am CDT Monday 22 December 2014 (issued every 30 minutes, with the page automatically refreshed every 10 minutes)

About weather observations | Map of weather stations | Latest weather observations for SA | Other Formats
Station Details ID: 018116 Name: CLEVE AERODROME Lat: -33.71 Lon: 136.50 Height: 175.0 m
Data from the previous 72 hours. | See also: Recent months at Cleve Airport
Date/Time
CDT
Temp
°C
App
Temp
°C
Dew
Point
Rel
Hum
%
Delta-T
°C
Wind Press
QNH
hPa
Press
MSL
hPa
Rain
since 9 am
mm
Dir
 
Spd
km/h
Gust
km/h
Spd
kts
Gust
kts
22/09:30am 18.4 18.8 16.4 88 1.2 SW 9 13 5 7 1009.5 - 0.0
22/09:00am 18.3 18.3 16.3 88 1.2 SW 11 15 6 8 1009.4 1008.8 0.4
22/08:30am 18.2 18.3 16.4 89 1.1 SW 11 17 6 9 1009.0 - 0.4
22/08:00am 17.9 18.7 15.9 88 1.2 SSE 6 7 3 4 1008.5 - 0.4
22/07:30am 17.8 18.1 16.0 89 1.1 S 9 13 5 7 1008.0 - 0.4
22/07:00am 17.7 17.6 15.9 89 1.1 SSE 11 13 6 7 1007.3 - 0.4
22/06:30am 17.7 18.5 15.9 89 1.1 E 6 11 3 6 1007.3 - 0.4
22/06:00am 17.3 17.9 15.8 91 0.9 NE 7 11 4 6 1007.7 1007.1 0.4
22/05:30am 17.3 18.8 15.6 90 1.0 E 2 7 1 4 1007.5 - 0.4
22/05:00am 17.1 16.9 15.6 91 0.9 E 11 13 6 7 1006.9 - 0.4
22/04:30am 17.0 16.7 15.5 91 0.9 ESE 11 13 6 7 1007.1 - 0.4
22/04:00am 17.2 16.6 15.7 91 0.9 ESE 13 17 7 9 1007.0 - 0.4
22/03:30am 17.7 16.5 16.0 90 1.0 ESE 17 20 9 11 1007.2 - 0.4
22/03:00am 18.1 17.3 16.1 88 1.2 ESE 15 20 8 11 1007.7 1007.1 0.4
22/02:30am 18.0 17.2 16.2 89 1.1 ESE 15 20 8 11 1007.9 - 0.4
22/02:00am 17.8 16.1 15.8 88 1.2 ESE 19 24 10 13 1008.2 - 0.4
22/01:30am 18.1 16.4 15.7 86 1.4 ESE 19 22 10 12 1008.7 - 0.4
22/01:00am 18.4 16.6 15.6 84 1.7 ESE 19 24 10 13 1009.0 - 0.4
22/12:30am 18.8 17.2 16.0 84 1.7 ESE 19 24 10 13 1009.4 - 0.4
22/12:00am 19.2 17.6 16.4 84 1.7 SE 20 26 11 14 1009.8 1009.3 0.4
 
Date/Time
CDT
Temp
°C
App
Temp
°C
Dew
Point
Rel
Hum
%
Delta-T
°C
Wind Press
QNH
hPa
Press
MSL
hPa
Rain
since 9 am
mm
Dir
 
Spd
km/h
Gust
km/h
Spd
kts
Gust
kts
21/11:30pm 19.4 18.7 16.4 83 1.8 ESE 15 17 8 9 1010.0 - 0.4
21/11:00pm 19.8 19.4 16.3 80 2.1 ESE 13 15 7 8 1010.0 - 0.4
21/10:30pm 20.4 20.1 16.4 78 2.4 ESE 13 17 7 9 1010.4 - 0.4
21/10:00pm 20.5 20.5 16.3 77 2.5 ESE 11 13 6 7 1010.9 - 0.4
21/09:30pm 20.7 19.6 16.3 76 2.7 SE 17 20 9 11 1010.8 - 0.4
21/09:00pm 21.5 22.2 16.0 71 3.3 SSE 7 9 4 5 1010.5 1010.0 0.4
21/08:30pm 21.7 22.8 15.5 68 3.7 N 4 6 2 3 1010.6 - 0.4
21/08:00pm 22.0 22.3 15.1 65 4.1 SW 7 15 4 8 1010.8 - 0.4
21/07:30pm 22.4 21.6 15.0 63 4.4 S 13 17 7 9 1010.5 - 0.4
21/07:00pm 22.9 20.7 15.0 61 4.7 SW 20 28 11 15 1010.2 - 0.2
21/06:30pm 25.9 23.4 12.4 43 7.9 WSW 17 20 9 11 1010.4 - 0.0
21/06:00pm 26.0 23.9 12.5 43 7.9 SW 15 20 8 11 1010.2 1009.7 0.0
21/05:30pm 25.9 23.6 13.1 45 7.5 SSW 17 22 9 12 1009.3 - 0.0
21/05:00pm 26.5 23.7 12.5 41 8.2 SW 19 24 10 13 1008.9 - 0.0
21/04:30pm 26.0 21.5 14.8 50 6.8 SSW 32 52 17 28 1008.6 - 0.0
21/04:18pm 28.3 24.1 15.6 46 7.8 SSW 32 50 17 27 1008.3 - 0.0
21/04:16pm 29.1 25.8 16.0 45 8.2 SSW 28 43 15 23 1008.2 - 0.0
21/04:00pm 28.6 27.7 14.8 43 8.4 ESE 13 17 7 9 1008.1 - 0.0
21/03:30pm 26.7 25.0 15.7 51 6.8 SE 19 24 10 13 1008.6 - 0.0
21/03:00pm 27.8 24.3 15.5 47 7.6 SSE 28 33 15 18 1008.6 1008.0 0.0
21/02:30pm 28.9 26.8 14.7 42 8.7 S 19 26 10 14 1008.8 - 0.0
21/02:29pm 29.5 27.6 14.1 39 9.3 SSE 17 32 9 17 1008.9 - 0.0
21/02:00pm 36.2 29.2 -3.3 8 18.8 N 24 37 13 20 1008.8 - 0.0
21/01:32pm 36.2 28.5 -3.3 8 18.8 NNW 28 50 15 27 1009.3 - 0.0
21/01:30pm 36.1 28.9 -1.7 9 18.4 NNW 26 44 14 24 1009.3 - 0.0
21/01:00pm 35.9 27.6 -1.9 9 18.3 NNW 32 46 17 25 1009.8 - 0.0
21/12:30pm 35.8 27.5 -2.0 9 18.3 N 32 44 17 24 1010.0 - 0.0
21/12:02pm 36.5 28.1 -1.4 9 18.6 N 33 52 18 28 1010.5 - 0.0
21/12:00pm 34.9 26.1 -1.2 10 17.6 N 35 52 19 28 1010.5 1010.0 0.0
21/11:30am 34.3 25.8 -1.7 10 17.3 NNW 33 48 18 26 1010.7 - 0.0
21/11:00am 32.9 23.9 -0.2 12 16.2 N 37 48 20 26 1010.9 - 0.0
21/10:30am 32.6 24.1 0.6 13 15.8 N 35 46 19 25 1010.6 - 0.0
21/10:00am 30.7 22.6 1.1 15 14.6 N 33 46 18 25 1010.7 - 0.0
21/09:30am 30.6 22.3 1.9 16 14.3 N 35 44 19 24 1010.9 - 0.0
21/09:00am 30.4 22.2 2.6 17 14.0 N 35 54 19 29 1010.7 1010.2 0.0
21/08:59am 30.4 22.6 2.6 17 14.0 N 33 54 18 29 1010.7 - 0.0
21/08:30am 28.7 21.3 4.9 22 12.4 N 33 46 18 25 1010.6 - 0.0
21/08:00am 25.8 18.2 5.9 28 10.3 N 35 46 19 25 1010.6 - 0.0
21/07:30am 26.7 18.6 5.1 25 11.1 N 37 48 20 26 1010.2 - 0.0
21/07:00am 25.7 18.5 5.8 28 10.3 N 33 43 18 23 1010.0 - 0.0
21/06:30am 25.6 19.9 4.7 26 10.6 N 24 39 13 21 1009.8 - 0.0
21/06:00am 23.5 19.0 5.9 32 9.0 NE 19 24 10 13 1009.7 1009.1 0.0
21/05:30am 18.6 15.0 6.8 46 6.0 E 15 22 8 12 1009.7 - 0.0
21/05:00am 19.1 16.0 7.2 46 6.1 ESE 13 19 7 10 1010.0 - 0.0
21/04:30am 19.0 17.0 7.1 46 6.1 E 7 9 4 5 1010.1 - 0.0
21/04:00am 20.0 17.5 8.0 46 6.3 E 11 17 6 9 1010.1 - 0.0
21/03:30am 15.8 13.8 10.1 69 3.0 E 11 13 6 7 1010.4 - 0.0
21/03:00am 16.2 14.4 9.6 65 3.5 E 9 13 5 7 1010.6 1010.1 0.0
21/02:30am 16.0 14.1 10.5 70 2.9 ENE 11 13 6 7 1011.1 - 0.0
21/02:00am 17.2 14.6 11.9 71 2.9 ENE 17 19 9 10 1011.6 - 0.0
21/01:30am 17.5 14.5 12.0 70 3.0 ENE 19 19 10 10 1012.0 - 0.0
21/01:00am 15.4 13.3 11.0 75 2.4 E 13 15 7 8 1012.6 - 0.0
21/12:30am 16.8 15.2 11.7 72 2.8 ENE 11 13 6 7 1012.4 - 0.0
21/12:00am 17.1 14.8 11.6 70 3.0 ENE 15 19 8 10 1012.7 1012.1 0.0
 
Date/Time
CDT
Temp
°C
App
Temp
°C
Dew
Point
Rel
Hum
%
Delta-T
°C
Wind Press
QNH
hPa
Press
MSL
hPa
Rain
since 9 am
mm
Dir
 
Spd
km/h
Gust
km/h
Spd
kts
Gust
kts
20/11:30pm 18.1 15.2 12.3 69 3.2 ENE 19 20 10 11 1012.5 - 0.0
20/11:00pm 17.5 15.0 12.4 72 2.8 ENE 17 19 9 10 1012.7 - 0.0
20/10:30pm 17.0 14.7 11.9 72 2.8 E 15 17 8 9 1013.2 - 0.0
20/10:00pm 18.2 16.0 13.3 73 2.8 E 17 19 9 10 1013.3 - 0.0
20/09:30pm 18.9 16.6 12.9 68 3.4 ESE 17 20 9 11 1013.3 - 0.0
20/09:00pm 19.7 17.2 12.2 62 4.2 ESE 17 20 9 11 1013.4 1012.8 0.0
20/08:30pm 20.9 17.6 11.0 53 5.5 ESE 19 22 10 12 1013.5 - 0.0
20/08:00pm 22.3 18.5 9.8 45 6.8 ESE 20 26 11 14 1013.5 - 0.0
20/07:30pm 23.2 18.9 9.2 41 7.6 ESE 22 28 12 15 1013.4 - 0.0
20/07:00pm 23.9 19.5 9.1 39 8.0 SE 22 30 12 16 1013.3 - 0.0
20/06:30pm 24.7 19.5 9.0 37 8.6 SE 26 32 14 17 1013.0 - 0.0
20/06:00pm 24.9 20.3 9.6 38 8.4 ESE 24 32 13 17 1013.0 1012.4 0.0
20/05:30pm 25.5 20.8 9.3 36 8.9 SE 24 32 13 17 1013.2 - 0.0
20/05:00pm 25.0 21.1 9.3 37 8.6 SE 20 30 11 16 1013.6 - 0.0
20/04:30pm 25.8 21.4 10.4 38 8.7 SE 24 35 13 19 1013.8 - 0.0
20/04:00pm 25.8 21.4 10.4 38 8.7 SE 24 32 13 17 1014.0 - 0.0
20/03:30pm 25.7 21.4 10.7 39 8.5 SE 24 33 13 18 1014.5 - 0.0
20/03:00pm 25.7 22.0 10.3 38 8.6 SE 20 32 11 17 1014.9 1014.4 0.0
20/02:30pm 25.2 21.2 10.6 40 8.2 SE 22 32 12 17 1015.4 - 0.0
20/02:00pm 25.9 21.4 10.1 37 8.8 SE 24 33 13 18 1015.8 - 0.0
20/01:30pm 25.9 21.3 9.7 36 9.0 SE 24 37 13 20 1016.2 - 0.0
20/01:00pm 24.7 21.2 10.2 40 8.1 SE 19 33 10 18 1016.6 - 0.0
20/12:30pm 24.9 20.8 10.0 39 8.3 SE 22 30 12 16 1016.9 - 0.0
20/12:00pm 25.2 21.3 9.5 37 8.6 SE 20 32 11 17 1017.1 1016.6 0.0
20/11:30am 25.2 20.8 9.1 36 8.8 SE 22 32 12 17 1017.4 - 0.0
20/11:00am 24.5 20.8 8.0 35 8.8 SE 17 22 9 12 1017.7 - 0.0
20/10:30am 23.1 20.3 8.4 39 7.9 SE 13 22 7 12 1018.0 - 0.0
20/10:00am 22.6 18.8 9.0 42 7.3 ESE 19 24 10 13 1018.1 - 0.0
20/09:30am 21.1 17.5 10.0 49 6.0 E 19 24 10 13 1018.6 - 0.0
20/09:00am 20.2 16.7 10.9 55 5.1 E 20 26 11 14 1018.8 1018.2 0.0
20/08:30am 18.8 14.9 10.9 60 4.3 ENE 22 28 12 15 1018.6 - 0.0
20/08:00am 17.6 13.9 11.4 67 3.4 E 22 28 12 15 1018.7 - 0.0
20/07:30am 16.7 14.8 11.8 73 2.7 E 13 19 7 10 1018.7 - 0.0
20/07:00am 15.0 13.1 11.8 81 1.7 NE 13 15 7 8 1018.6 - 0.0
20/06:30am 12.3 10.0 10.5 89 0.9 ENE 13 15 7 8 1018.4 - 0.0
20/06:00am 11.7 9.2 9.8 88 1.0 ENE 13 15 7 8 1018.0 1017.5 0.0
20/05:30am 11.9 9.4 9.8 87 1.1 ENE 13 15 7 8 1018.1 - 0.0
20/05:00am 12.4 10.0 10.1 86 1.2 E 13 15 7 8 1018.1 - 0.0
20/04:30am 13.4 11.1 10.6 83 1.5 E 13 15 7 8 1018.1 - 0.0
20/04:00am 14.0 11.3 10.4 79 1.9 E 15 17 8 9 1018.1 - 0.0
20/03:30am 15.3 12.4 11.1 76 2.3 E 17 24 9 13 1018.2 - 0.0
20/03:00am 15.8 12.3 11.0 73 2.6 E 20 26 11 14 1018.2 1017.7 0.0
20/02:30am 14.7 13.0 11.1 79 1.9 E 11 15 6 8 1018.4 - 0.0
20/02:00am 13.8 12.3 10.6 81 1.7 E 9 13 5 7 1018.6 - 0.0
20/01:30am 13.1 11.1 10.3 83 1.5 E 11 13 6 7 1019.1 - 0.0
20/01:00am 12.8 10.4 10.0 83 1.5 E 13 15 7 8 1019.4 - 0.0
20/12:30am 12.6 10.5 9.6 82 1.5 E 11 13 6 7 1019.8 - 0.0
20/12:00am 13.5 11.4 9.7 78 2.0 E 11 15 6 8 1020.2 1019.7 0.0
 
Date/Time
CDT
Temp
°C
App
Temp
°C
Dew
Point
Rel
Hum
%
Delta-T
°C
Wind Press
QNH
hPa
Press
MSL
hPa
Rain
since 9 am
mm
Dir
 
Spd
km/h
Gust
km/h
Spd
kts
Gust
kts
19/11:30pm 14.4 11.7 10.4 77 2.1 SE 15 17 8 9 1020.4 - 0.0
19/11:00pm 14.3 11.8 9.7 74 2.4 SE 13 17 7 9 1020.7 - 0.0
19/10:30pm 14.7 12.2 9.7 72 2.6 ESE 13 15 7 8 1020.6 - 0.0
19/10:00pm 15.1 12.7 9.9 71 2.7 SE 13 15 7 8 1020.7 - 0.0
19/09:30pm 15.6 13.2 9.9 69 3.0 SE 13 15 7 8 1020.5 - 0.0
19/09:00pm 16.1 13.3 10.0 67 3.2 SE 15 19 8 10 1020.5 1020.0 0.0
19/08:30pm 16.9 13.2 9.6 62 3.9 SSE 19 24 10 13 1020.4 - 0.0
19/08:00pm 18.1 13.8 9.2 56 4.7 SSE 22 26 12 14 1020.5 - 0.0
19/07:30pm 19.0 14.1 8.6 51 5.4 SSE 24 30 13 16 1020.3 - 0.0
19/07:00pm 19.8 14.6 7.2 44 6.5 SE 24 30 13 16 1019.8 - 0.0
19/06:30pm 20.5 15.3 7.2 42 6.8 SE 24 32 13 17 1019.8 - 0.0
19/06:00pm 20.5 15.6 6.8 41 7.0 SSE 22 30 12 16 1019.8 1019.3 0.0
19/05:30pm 20.7 15.7 6.6 40 7.2 SE 22 32 12 17 1019.8 - 0.0
19/05:00pm 21.1 16.4 7.7 42 7.0 SE 22 33 12 18 1019.8 - 0.0
19/04:30pm 21.3 16.9 7.5 41 7.2 SE 20 37 11 20 1019.9 - 0.0
19/04:00pm 22.3 18.1 8.1 40 7.5 SSE 20 28 11 15 1020.1 - 0.0
19/03:30pm 21.7 17.1 8.2 42 7.1 SE 22 32 12 17 1020.4 - 0.0
19/03:00pm 20.8 16.1 7.8 43 6.8 SSE 22 32 12 17 1020.7 1020.2 0.0
19/02:30pm 21.1 16.8 7.7 42 7.0 SE 20 26 11 14 1020.8 - 0.0
19/02:00pm 21.0 16.6 7.3 41 7.1 SE 20 28 11 15 1020.8 - 0.0
19/01:30pm 21.3 16.5 7.2 40 7.3 SSE 22 32 12 17 1021.0 - 0.0
19/01:00pm 20.5 15.7 7.5 43 6.7 S 22 37 12 20 1021.0 - 0.0
19/12:30pm 21.1 16.7 7.3 41 7.1 SSE 20 28 11 15 1020.9 - 0.0
19/12:00pm 21.5 17.6 7.3 40 7.3 ESE 17 33 9 18 1021.0 1020.5 0.0
19/11:30am 19.6 16.1 7.4 45 6.3 SSE 15 26 8 14 1021.1 - 0.0
19/11:00am 19.7 16.2 7.4 45 6.3 E 15 22 8 12 1021.1 - 0.0
19/10:30am 18.7 15.3 7.8 49 5.6 SSE 15 24 8 13 1021.2 - 0.0
19/10:00am 17.5 14.8 7.5 52 5.1 SSE 11 19 6 10 1021.5 - 0.0

Other Formats:

Comma delimited format used in spreadsheet applications
http://www.bom.gov.au/fwo/IDS60801/IDS60801.94662.axf

JavaScript Object Notation format (JSON) in row-major order
http://www.bom.gov.au/fwo/IDS60801/IDS60801.94662.json